EXS84JZ EGBB-ENBR
Flight info
| Callsign | EXS84JZ |
|---|---|
| Flight time | 1h 47m |
| Altitude | 36000 |
| Route | LUVUM DCT TNT N57 POL DCT KEFTE/N0440F370 DCT ROBEM DCT BEVAM DCT CUTEL DCT ALOTI DCT ALUVA |
| Aircraft | B738/M-SDE2E3FGHIRWXY/LB1 |
Departure
| Time | 2026-04-28 09:06 |
|---|---|
| Airport | Birmingham Airport (EGBB) |
Arrival
| Time | 2026-04-28 10:53 |
|---|---|
| Airport | Bergen Airport, Flesland (ENBR) |
| Time | Latitude | Longitude | Altitude | Speed | Heading |
|---|---|---|---|---|---|
| 2026-04-28 08:54 | 52.44971 | -1.73477 | 322 ft | 0 kts | 356° |
| 2026-04-28 08:59 | 52.44966 | -1.73476 | 322 ft | 3 kts | 356° |
| 2026-04-28 08:59 | 52.44945 | -1.73472 | 321 ft | 4 kts | 332° |
| 2026-04-28 09:00 | 52.44932 | -1.73446 | 322 ft | 4 kts | 262° |
| 2026-04-28 09:00 | 52.44936 | -1.73423 | 320 ft | 4 kts | 236° |
| 2026-04-28 09:00 | 52.44923 | -1.73455 | 321 ft | 1 kts | 236° |
| 2026-04-28 09:02 | 52.44922 | -1.73456 | 321 ft | 1 kts | 236° |
| 2026-04-28 09:02 | 52.44912 | -1.73481 | 322 ft | 5 kts | 236° |
| 2026-04-28 09:03 | 52.44894 | -1.73557 | 322 ft | 9 kts | 238° |
| 2026-04-28 09:03 | 52.44870 | -1.73626 | 322 ft | 9 kts | 237° |
| 2026-04-28 09:03 | 52.44803 | -1.73695 | 322 ft | 14 kts | 199° |
| 2026-04-28 09:03 | 52.44700 | -1.73714 | 321 ft | 17 kts | 154° |
| 2026-04-28 09:04 | 52.44591 | -1.73595 | 322 ft | 21 kts | 146° |
| 2026-04-28 09:04 | 52.44468 | -1.73456 | 322 ft | 20 kts | 145° |
| 2026-04-28 09:04 | 52.44392 | -1.73409 | 322 ft | 9 kts | 192° |
| 2026-04-28 09:04 | 52.44342 | -1.73496 | 323 ft | 12 kts | 234° |
| 2026-04-28 09:05 | 52.44308 | -1.73597 | 322 ft | 3 kts | 284° |
| 2026-04-28 09:05 | 52.44331 | -1.73631 | 322 ft | 7 kts | 324° |
| 2026-04-28 09:05 | 52.44528 | -1.73848 | 325 ft | 67 kts | 326° |
| 2026-04-28 09:05 | 52.45090 | -1.74470 | 328 ft | 127 kts | 326° |
| 2026-04-28 09:06 | 52.45974 | -1.75383 | 458 ft | 162 kts | 333° |
| 2026-04-28 09:06 | 52.46911 | -1.76362 | 1191 ft | 160 kts | 330° |
| 2026-04-28 09:06 | 52.47866 | -1.77458 | 1754 ft | 175 kts | 329° |
| 2026-04-28 09:06 | 52.48935 | -1.78642 | 2060 ft | 198 kts | 343° |
| 2026-04-28 09:07 | 52.50277 | -1.78934 | 2554 ft | 198 kts | 6° |
| 2026-04-28 09:07 | 52.51661 | -1.78769 | 3213 ft | 201 kts | 11° |
| 2026-04-28 09:07 | 52.53084 | -1.78482 | 3767 ft | 215 kts | 12° |
| 2026-04-28 09:07 | 52.54656 | -1.78147 | 4064 ft | 238 kts | 12° |
| 2026-04-28 09:08 | 52.56330 | -1.77797 | 4731 ft | 246 kts | 12° |
| 2026-04-28 09:08 | 52.58047 | -1.77443 | 5487 ft | 250 kts | 12° |
| 2026-04-28 09:08 | 52.59783 | -1.77089 | 6105 ft | 251 kts | 12° |
| 2026-04-28 09:08 | 52.61515 | -1.76735 | 6364 ft | 252 kts | 12° |
| 2026-04-28 09:09 | 52.63248 | -1.76381 | 6349 ft | 250 kts | 12° |
| 2026-04-28 09:09 | 52.64980 | -1.76027 | 6374 ft | 253 kts | 12° |
| 2026-04-28 09:09 | 52.66734 | -1.75667 | 6380 ft | 255 kts | 12° |
| 2026-04-28 09:09 | 52.68509 | -1.75298 | 6652 ft | 260 kts | 12° |
| 2026-04-28 09:10 | 52.70289 | -1.74931 | 7556 ft | 255 kts | 12° |
| 2026-04-28 09:10 | 52.72051 | -1.74562 | 8382 ft | 256 kts | 13° |
| 2026-04-28 09:10 | 52.73830 | -1.74164 | 9138 ft | 260 kts | 13° |
| 2026-04-28 09:10 | 52.75631 | -1.73755 | 9870 ft | 263 kts | 13° |
| 2026-04-28 09:11 | 52.77459 | -1.73339 | 10549 ft | 268 kts | 13° |
| 2026-04-28 09:11 | 52.79371 | -1.72900 | 10806 ft | 289 kts | 13° |
| 2026-04-28 09:11 | 52.81437 | -1.72424 | 10984 ft | 311 kts | 12° |
| 2026-04-28 09:11 | 52.83640 | -1.71922 | 11298 ft | 326 kts | 12° |
| 2026-04-28 09:12 | 52.85907 | -1.71412 | 11895 ft | 332 kts | 12° |
| 2026-04-28 09:12 | 52.88206 | -1.70898 | 12614 ft | 334 kts | 12° |
| 2026-04-28 09:12 | 52.90521 | -1.70379 | 13339 ft | 337 kts | 12° |
| 2026-04-28 09:12 | 52.92850 | -1.69853 | 14060 ft | 340 kts | 12° |
| 2026-04-28 09:13 | 52.95209 | -1.69319 | 14726 ft | 344 kts | 12° |
| 2026-04-28 09:13 | 52.97585 | -1.68780 | 15441 ft | 345 kts | 12° |
| 2026-04-28 09:13 | 52.99971 | -1.68238 | 16144 ft | 347 kts | 12° |
| 2026-04-28 09:13 | 53.02376 | -1.67697 | 16818 ft | 351 kts | 11° |
| 2026-04-28 09:14 | 53.04842 | -1.67627 | 17497 ft | 359 kts | 0° |
| 2026-04-28 09:14 | 53.07336 | -1.68248 | 18206 ft | 367 kts | 352° |
| 2026-04-28 09:14 | 53.09794 | -1.69576 | 18828 ft | 375 kts | 345° |
| 2026-04-28 09:14 | 53.12235 | -1.71154 | 19405 ft | 378 kts | 345° |
| 2026-04-28 09:15 | 53.14699 | -1.72733 | 20025 ft | 379 kts | 346° |
| 2026-04-28 09:15 | 53.17172 | -1.74290 | 20624 ft | 381 kts | 346° |
| 2026-04-28 09:15 | 53.19664 | -1.75843 | 21196 ft | 384 kts | 347° |
| 2026-04-28 09:15 | 53.22175 | -1.77402 | 21753 ft | 386 kts | 347° |
| 2026-04-28 09:16 | 53.24697 | -1.78968 | 22271 ft | 388 kts | 347° |
| 2026-04-28 09:16 | 53.27242 | -1.80551 | 22783 ft | 392 kts | 347° |
| 2026-04-28 09:16 | 53.29773 | -1.82128 | 23290 ft | 395 kts | 347° |
| 2026-04-28 09:16 | 53.32387 | -1.83762 | 23835 ft | 397 kts | 347° |
| 2026-04-28 09:17 | 53.34940 | -1.85361 | 24281 ft | 399 kts | 347° |
| 2026-04-28 09:17 | 53.37551 | -1.86997 | 24709 ft | 401 kts | 347° |
| 2026-04-28 09:17 | 53.40170 | -1.88642 | 25115 ft | 404 kts | 347° |
| 2026-04-28 09:17 | 53.42808 | -1.90300 | 25518 ft | 406 kts | 347° |
| 2026-04-28 09:18 | 53.45458 | -1.91969 | 25927 ft | 408 kts | 348° |
| 2026-04-28 09:18 | 53.48118 | -1.93645 | 26314 ft | 410 kts | 348° |
| 2026-04-28 09:18 | 53.50800 | -1.95336 | 26683 ft | 412 kts | 348° |
| 2026-04-28 09:18 | 53.53490 | -1.97034 | 27046 ft | 414 kts | 348° |
| 2026-04-28 09:19 | 53.56199 | -1.98743 | 27424 ft | 417 kts | 348° |
| 2026-04-28 09:19 | 53.58917 | -2.00461 | 27778 ft | 419 kts | 348° |
| 2026-04-28 09:19 | 53.61650 | -2.02191 | 28127 ft | 421 kts | 348° |
| 2026-04-28 09:19 | 53.64399 | -2.03935 | 28487 ft | 423 kts | 348° |
| 2026-04-28 09:20 | 53.67153 | -2.05683 | 28822 ft | 425 kts | 349° |
| 2026-04-28 09:20 | 53.69936 | -2.07381 | 29120 ft | 422 kts | 354° |
| 2026-04-28 09:20 | 53.72770 | -2.07931 | 29367 ft | 403 kts | 11° |
| 2026-04-28 09:20 | 53.75500 | -2.07150 | 29698 ft | 395 kts | 21° |
| 2026-04-28 09:21 | 53.78039 | -2.05481 | 29998 ft | 389 kts | 33° |
| 2026-04-28 09:21 | 53.80268 | -2.02952 | 30443 ft | 384 kts | 39° |
| 2026-04-28 09:21 | 53.82368 | -2.00201 | 30911 ft | 380 kts | 40° |
| 2026-04-28 09:21 | 53.84435 | -1.97431 | 31335 ft | 378 kts | 41° |
| 2026-04-28 09:22 | 53.86494 | -1.94678 | 31685 ft | 377 kts | 40° |
| 2026-04-28 09:22 | 53.88562 | -1.91938 | 32030 ft | 377 kts | 40° |
| 2026-04-28 09:22 | 53.90626 | -1.89223 | 32401 ft | 375 kts | 40° |
| 2026-04-28 09:22 | 53.92687 | -1.86522 | 32780 ft | 373 kts | 40° |
| 2026-04-28 09:23 | 53.94740 | -1.83834 | 33142 ft | 372 kts | 40° |
| 2026-04-28 09:23 | 53.96789 | -1.81150 | 33470 ft | 371 kts | 40° |
| 2026-04-28 09:23 | 53.98827 | -1.78475 | 33775 ft | 370 kts | 40° |
| 2026-04-28 09:23 | 54.00961 | -1.75986 | 34014 ft | 375 kts | 34° |
| 2026-04-28 09:24 | 54.03287 | -1.73945 | 34326 ft | 377 kts | 29° |
| 2026-04-28 09:24 | 54.05761 | -1.72383 | 34634 ft | 381 kts | 22° |
| 2026-04-28 09:24 | 54.08309 | -1.71130 | 34861 ft | 382 kts | 22° |
| 2026-04-28 09:24 | 54.10880 | -1.69900 | 35018 ft | 385 kts | 21° |
| 2026-04-28 09:25 | 54.13460 | -1.68671 | 35217 ft | 386 kts | 21° |
| 2026-04-28 09:25 | 54.16045 | -1.67435 | 35481 ft | 386 kts | 21° |
| 2026-04-28 09:25 | 54.18630 | -1.66190 | 35687 ft | 387 kts | 21° |
| 2026-04-28 09:25 | 54.21223 | -1.64934 | 35872 ft | 388 kts | 21° |
| 2026-04-28 09:26 | 54.23784 | -1.63686 | 36030 ft | 388 kts | 21° |
| 2026-04-28 09:26 | 54.26387 | -1.62414 | 36190 ft | 390 kts | 21° |
| 2026-04-28 09:26 | 54.29002 | -1.61132 | 36343 ft | 392 kts | 21° |
| 2026-04-28 09:26 | 54.31616 | -1.59849 | 36567 ft | 391 kts | 20° |
| 2026-04-28 09:27 | 54.36856 | -1.57272 | 36971 ft | 393 kts | 20° |
| 2026-04-28 09:27 | 54.39487 | -1.55974 | 37140 ft | 394 kts | 20° |
| 2026-04-28 09:27 | 54.42120 | -1.54674 | 37333 ft | 394 kts | 20° |
| 2026-04-28 09:28 | 54.44752 | -1.53373 | 37521 ft | 394 kts | 20° |
| 2026-04-28 09:28 | 54.47392 | -1.52066 | 37698 ft | 395 kts | 20° |
| 2026-04-28 09:28 | 54.50032 | -1.50758 | 37857 ft | 395 kts | 20° |
| 2026-04-28 09:28 | 54.52671 | -1.49448 | 38114 ft | 393 kts | 20° |
| 2026-04-28 09:29 | 54.55300 | -1.48142 | 38291 ft | 394 kts | 20° |
| 2026-04-28 09:29 | 54.57936 | -1.46829 | 38418 ft | 395 kts | 20° |
| 2026-04-28 09:29 | 54.63243 | -1.44181 | 38471 ft | 399 kts | 19° |
| 2026-04-28 09:30 | 54.68553 | -1.41527 | 38482 ft | 395 kts | 20° |
| 2026-04-28 09:30 | 54.73821 | -1.38887 | 38483 ft | 393 kts | 20° |
| 2026-04-28 09:31 | 54.79050 | -1.36258 | 38472 ft | 390 kts | 20° |
| 2026-04-28 09:31 | 54.84246 | -1.33638 | 38483 ft | 388 kts | 20° |
| 2026-04-28 09:32 | 54.89428 | -1.31018 | 38479 ft | 387 kts | 20° |
| 2026-04-28 09:32 | 54.94602 | -1.28394 | 38486 ft | 388 kts | 20° |
| 2026-04-28 09:33 | 54.99786 | -1.25758 | 38490 ft | 389 kts | 20° |
| 2026-04-28 09:33 | 55.04980 | -1.23111 | 38484 ft | 389 kts | 20° |
| 2026-04-28 09:34 | 55.10189 | -1.20448 | 38488 ft | 391 kts | 20° |
| 2026-04-28 09:34 | 55.15421 | -1.17767 | 38492 ft | 392 kts | 20° |
| 2026-04-28 09:35 | 55.20667 | -1.15072 | 38501 ft | 394 kts | 20° |
| 2026-04-28 09:35 | 55.25929 | -1.12360 | 38499 ft | 395 kts | 20° |
| 2026-04-28 09:36 | 55.31159 | -1.09658 | 38515 ft | 394 kts | 20° |
| 2026-04-28 09:36 | 55.36424 | -1.06931 | 38503 ft | 394 kts | 20° |
| 2026-04-28 09:37 | 55.41673 | -1.04172 | 38497 ft | 392 kts | 24° |
| 2026-04-28 09:37 | 55.44032 | -1.01884 | 38515 ft | 386 kts | 39° |
| 2026-04-28 09:37 | 55.45979 | -0.98653 | 38490 ft | 385 kts | 49° |
| 2026-04-28 09:38 | 55.47508 | -0.94788 | 38498 ft | 386 kts | 61° |
| 2026-04-28 09:38 | 55.48591 | -0.90444 | 38518 ft | 387 kts | 65° |
| 2026-04-28 09:38 | 55.50491 | -0.81560 | 38502 ft | 387 kts | 66° |
| 2026-04-28 09:39 | 55.52363 | -0.72653 | 38482 ft | 387 kts | 66° |
| 2026-04-28 09:39 | 55.54262 | -0.63775 | 38494 ft | 386 kts | 66° |
| 2026-04-28 09:40 | 55.56172 | -0.54913 | 38498 ft | 386 kts | 66° |
| 2026-04-28 09:40 | 55.57758 | -0.47550 | 38502 ft | 386 kts | 66° |
| 2026-04-28 09:41 | 55.59663 | -0.38672 | 38503 ft | 386 kts | 66° |
| 2026-04-28 09:41 | 55.61564 | -0.29769 | 38502 ft | 387 kts | 66° |
| 2026-04-28 09:42 | 55.63460 | -0.20854 | 38501 ft | 387 kts | 66° |
| 2026-04-28 09:42 | 55.65352 | -0.11920 | 38501 ft | 388 kts | 66° |
| 2026-04-28 09:43 | 55.67240 | -0.02962 | 38504 ft | 388 kts | 66° |
| 2026-04-28 09:43 | 55.69125 | 0.06022 | 38506 ft | 389 kts | 66° |
| 2026-04-28 09:44 | 55.71007 | 0.15027 | 38502 ft | 390 kts | 66° |
| 2026-04-28 09:44 | 55.72857 | 0.24065 | 38498 ft | 391 kts | 69° |
| 2026-04-28 09:45 | 55.73848 | 0.33626 | 38504 ft | 396 kts | 77° |
| 2026-04-28 09:45 | 55.74596 | 0.43295 | 38506 ft | 395 kts | 77° |
| 2026-04-28 09:46 | 55.75352 | 0.52965 | 38496 ft | 395 kts | 77° |
| 2026-04-28 09:46 | 55.76113 | 0.62628 | 38500 ft | 396 kts | 77° |
| 2026-04-28 09:47 | 55.76870 | 0.72299 | 38494 ft | 395 kts | 77° |
| 2026-04-28 09:47 | 55.77621 | 0.81976 | 38497 ft | 395 kts | 77° |
| 2026-04-28 09:48 | 55.78363 | 0.91648 | 38479 ft | 395 kts | 77° |
| 2026-04-28 09:48 | 55.79096 | 1.01312 | 38489 ft | 394 kts | 77° |
| 2026-04-28 09:49 | 55.79822 | 1.10968 | 38497 ft | 394 kts | 77° |
| 2026-04-28 09:49 | 55.80540 | 1.20630 | 38497 ft | 395 kts | 77° |
| 2026-04-28 09:50 | 55.81247 | 1.30241 | 38486 ft | 395 kts | 77° |
| 2026-04-28 09:50 | 55.81950 | 1.39925 | 38492 ft | 395 kts | 77° |
| 2026-04-28 09:51 | 55.82647 | 1.49612 | 38495 ft | 395 kts | 77° |
| 2026-04-28 09:51 | 55.83336 | 1.59317 | 38489 ft | 395 kts | 77° |
| 2026-04-28 09:52 | 55.84019 | 1.69031 | 38514 ft | 396 kts | 77° |
| 2026-04-28 09:52 | 55.84695 | 1.78762 | 38498 ft | 396 kts | 77° |
| 2026-04-28 09:53 | 55.85364 | 1.88516 | 38485 ft | 397 kts | 78° |
| 2026-04-28 09:53 | 55.86026 | 1.98280 | 38488 ft | 398 kts | 78° |
| 2026-04-28 09:54 | 55.86681 | 2.08051 | 38483 ft | 398 kts | 78° |
| 2026-04-28 09:54 | 55.87331 | 2.17843 | 38488 ft | 398 kts | 78° |
| 2026-04-28 09:55 | 55.88010 | 2.27625 | 38505 ft | 396 kts | 72° |
| 2026-04-28 09:55 | 55.88989 | 2.32109 | 38511 ft | 385 kts | 56° |
| 2026-04-28 09:55 | 55.90599 | 2.35880 | 38481 ft | 382 kts | 44° |
| 2026-04-28 09:56 | 55.94929 | 2.41228 | 38497 ft | 383 kts | 22° |
| 2026-04-28 09:56 | 55.99993 | 2.44268 | 38494 ft | 385 kts | 20° |
| 2026-04-28 09:57 | 56.05127 | 2.47115 | 38489 ft | 387 kts | 20° |
| 2026-04-28 09:57 | 56.10267 | 2.50025 | 38488 ft | 388 kts | 20° |
| 2026-04-28 09:58 | 56.15417 | 2.53002 | 38489 ft | 389 kts | 20° |
| 2026-04-28 09:58 | 56.20573 | 2.56015 | 38488 ft | 390 kts | 20° |
| 2026-04-28 09:59 | 56.25703 | 2.59028 | 38487 ft | 391 kts | 20° |
| 2026-04-28 09:59 | 56.30867 | 2.62070 | 38485 ft | 390 kts | 20° |
| 2026-04-28 10:00 | 56.36021 | 2.65114 | 38485 ft | 389 kts | 20° |
| 2026-04-28 10:00 | 56.41159 | 2.68158 | 38487 ft | 388 kts | 20° |
| 2026-04-28 10:01 | 56.46276 | 2.71197 | 38485 ft | 386 kts | 20° |
| 2026-04-28 10:01 | 56.51374 | 2.74235 | 38487 ft | 385 kts | 20° |
| 2026-04-28 10:02 | 56.56452 | 2.77269 | 38484 ft | 384 kts | 20° |
| 2026-04-28 10:02 | 56.61513 | 2.80301 | 38485 ft | 382 kts | 20° |
| 2026-04-28 10:03 | 56.66555 | 2.83331 | 38485 ft | 381 kts | 20° |
| 2026-04-28 10:03 | 56.71583 | 2.86360 | 38483 ft | 380 kts | 20° |
| 2026-04-28 10:04 | 56.76608 | 2.89397 | 38485 ft | 380 kts | 20° |
| 2026-04-28 10:04 | 56.81625 | 2.92437 | 38508 ft | 380 kts | 20° |
| 2026-04-28 10:05 | 56.86619 | 2.95472 | 38492 ft | 381 kts | 20° |
| 2026-04-28 10:05 | 56.91644 | 2.98534 | 38493 ft | 381 kts | 20° |
| 2026-04-28 10:06 | 56.96675 | 3.01608 | 38494 ft | 381 kts | 20° |
| 2026-04-28 10:06 | 57.01707 | 3.04692 | 38494 ft | 381 kts | 20° |
| 2026-04-28 10:07 | 57.06744 | 3.07788 | 38513 ft | 382 kts | 20° |
| 2026-04-28 10:07 | 57.11778 | 3.10891 | 38515 ft | 382 kts | 20° |
| 2026-04-28 10:08 | 57.16813 | 3.14003 | 38517 ft | 382 kts | 20° |
| 2026-04-28 10:08 | 57.21845 | 3.17123 | 38518 ft | 381 kts | 20° |
| 2026-04-28 10:09 | 57.26874 | 3.20249 | 38521 ft | 381 kts | 20° |
| 2026-04-28 10:09 | 57.31901 | 3.23384 | 38519 ft | 381 kts | 20° |
| 2026-04-28 10:10 | 57.36920 | 3.26522 | 38519 ft | 380 kts | 20° |
| 2026-04-28 10:10 | 57.41932 | 3.29665 | 38523 ft | 380 kts | 20° |
| 2026-04-28 10:11 | 57.46937 | 3.32813 | 38518 ft | 379 kts | 20° |
| 2026-04-28 10:11 | 57.51928 | 3.35962 | 38525 ft | 379 kts | 20° |
| 2026-04-28 10:12 | 57.56917 | 3.39117 | 38521 ft | 378 kts | 20° |
| 2026-04-28 10:12 | 57.61896 | 3.42276 | 38516 ft | 378 kts | 19° |
| 2026-04-28 10:13 | 57.66866 | 3.45439 | 38522 ft | 377 kts | 19° |
| 2026-04-28 10:13 | 57.71835 | 3.48610 | 38521 ft | 377 kts | 19° |
| 2026-04-28 10:14 | 57.76799 | 3.51787 | 38526 ft | 377 kts | 19° |
| 2026-04-28 10:14 | 57.81765 | 3.54975 | 38526 ft | 377 kts | 20° |
| 2026-04-28 10:15 | 57.86695 | 3.58148 | 38521 ft | 377 kts | 20° |
| 2026-04-28 10:15 | 57.91669 | 3.61496 | 38513 ft | 377 kts | 24° |
| 2026-04-28 10:16 | 57.96408 | 3.65620 | 38512 ft | 378 kts | 25° |
| 2026-04-28 10:16 | 58.01167 | 3.69860 | 38528 ft | 379 kts | 24° |
| 2026-04-28 10:17 | 58.05936 | 3.74100 | 38523 ft | 379 kts | 24° |
| 2026-04-28 10:17 | 58.10718 | 3.78344 | 38524 ft | 379 kts | 24° |
| 2026-04-28 10:18 | 58.15497 | 3.82590 | 38520 ft | 379 kts | 24° |
| 2026-04-28 10:18 | 58.20275 | 3.86846 | 38523 ft | 379 kts | 24° |
| 2026-04-28 10:19 | 58.25050 | 3.91111 | 38522 ft | 379 kts | 24° |
| 2026-04-28 10:19 | 58.27445 | 3.93255 | 38267 ft | 383 kts | 24° |
| 2026-04-28 10:19 | 58.29840 | 3.95403 | 37997 ft | 378 kts | 24° |
| 2026-04-28 10:20 | 58.32198 | 3.97521 | 37618 ft | 371 kts | 24° |
| 2026-04-28 10:20 | 58.34522 | 3.99612 | 37205 ft | 367 kts | 24° |
| 2026-04-28 10:20 | 58.36815 | 4.01678 | 36855 ft | 362 kts | 24° |
| 2026-04-28 10:20 | 58.39077 | 4.03718 | 36467 ft | 358 kts | 24° |
| 2026-04-28 10:21 | 58.41318 | 4.05742 | 36081 ft | 354 kts | 24° |
| 2026-04-28 10:21 | 58.43535 | 4.07748 | 35701 ft | 351 kts | 24° |
| 2026-04-28 10:21 | 58.45735 | 4.09741 | 35327 ft | 348 kts | 24° |
| 2026-04-28 10:21 | 58.47913 | 4.11716 | 34955 ft | 345 kts | 24° |
| 2026-04-28 10:22 | 58.50073 | 4.13677 | 34590 ft | 342 kts | 24° |
| 2026-04-28 10:22 | 58.52218 | 4.15628 | 34175 ft | 340 kts | 24° |
| 2026-04-28 10:22 | 58.54345 | 4.17565 | 33777 ft | 337 kts | 24° |
| 2026-04-28 10:22 | 58.56452 | 4.19486 | 33403 ft | 334 kts | 24° |
| 2026-04-28 10:23 | 58.58538 | 4.21391 | 33035 ft | 331 kts | 24° |
| 2026-04-28 10:23 | 58.60606 | 4.23282 | 32675 ft | 328 kts | 24° |
| 2026-04-28 10:23 | 58.62654 | 4.25158 | 32324 ft | 325 kts | 24° |
| 2026-04-28 10:23 | 58.64686 | 4.27021 | 31964 ft | 322 kts | 24° |
| 2026-04-28 10:24 | 58.66703 | 4.28871 | 31634 ft | 320 kts | 24° |
| 2026-04-28 10:24 | 58.68701 | 4.30708 | 31290 ft | 318 kts | 24° |
| 2026-04-28 10:24 | 58.70689 | 4.32537 | 30949 ft | 316 kts | 24° |
| 2026-04-28 10:24 | 58.72664 | 4.34357 | 30609 ft | 314 kts | 24° |
| 2026-04-28 10:25 | 58.74626 | 4.36167 | 30216 ft | 312 kts | 24° |
| 2026-04-28 10:25 | 58.76548 | 4.37943 | 29845 ft | 309 kts | 24° |
| 2026-04-28 10:25 | 58.78476 | 4.39726 | 29486 ft | 306 kts | 24° |
| 2026-04-28 10:25 | 58.80383 | 4.41493 | 29140 ft | 304 kts | 24° |
| 2026-04-28 10:26 | 58.82283 | 4.43254 | 28819 ft | 302 kts | 24° |
| 2026-04-28 10:26 | 58.84176 | 4.45011 | 28466 ft | 303 kts | 24° |
| 2026-04-28 10:26 | 58.86097 | 4.46795 | 28129 ft | 312 kts | 24° |
| 2026-04-28 10:26 | 58.88074 | 4.48632 | 27767 ft | 318 kts | 24° |
| 2026-04-28 10:27 | 58.90058 | 4.50481 | 27386 ft | 316 kts | 24° |
| 2026-04-28 10:27 | 58.92027 | 4.52320 | 27015 ft | 313 kts | 24° |
| 2026-04-28 10:27 | 58.93981 | 4.54146 | 26657 ft | 310 kts | 24° |
| 2026-04-28 10:27 | 58.95917 | 4.55958 | 26309 ft | 308 kts | 24° |
| 2026-04-28 10:28 | 58.97842 | 4.57762 | 25942 ft | 306 kts | 23° |
| 2026-04-28 10:28 | 58.99750 | 4.59551 | 25595 ft | 304 kts | 23° |
| 2026-04-28 10:28 | 59.01647 | 4.61332 | 25260 ft | 302 kts | 23° |
| 2026-04-28 10:29 | 59.05411 | 4.64873 | 24572 ft | 299 kts | 23° |
| 2026-04-28 10:29 | 59.07281 | 4.66634 | 24228 ft | 298 kts | 23° |
| 2026-04-28 10:29 | 59.08541 | 4.67823 | 23974 ft | 298 kts | 23° |
| 2026-04-28 10:29 | 59.10398 | 4.69576 | 23591 ft | 296 kts | 23° |
| 2026-04-28 10:30 | 59.12220 | 4.71299 | 23227 ft | 294 kts | 23° |
| 2026-04-28 10:30 | 59.14072 | 4.73052 | 22878 ft | 291 kts | 23° |
| 2026-04-28 10:30 | 59.15863 | 4.74750 | 22553 ft | 289 kts | 23° |
| 2026-04-28 10:30 | 59.17662 | 4.76456 | 22218 ft | 286 kts | 23° |
| 2026-04-28 10:31 | 59.19446 | 4.78151 | 21895 ft | 284 kts | 23° |
| 2026-04-28 10:31 | 59.21217 | 4.79836 | 21572 ft | 282 kts | 23° |
| 2026-04-28 10:31 | 59.22974 | 4.81508 | 21259 ft | 280 kts | 23° |
| 2026-04-28 10:31 | 59.24720 | 4.83173 | 20940 ft | 278 kts | 23° |
| 2026-04-28 10:32 | 59.26453 | 4.84826 | 20627 ft | 277 kts | 23° |
| 2026-04-28 10:32 | 59.28178 | 4.86473 | 20317 ft | 275 kts | 23° |
| 2026-04-28 10:32 | 59.29894 | 4.88115 | 20005 ft | 274 kts | 23° |
| 2026-04-28 10:32 | 59.31601 | 4.89748 | 19699 ft | 273 kts | 23° |
| 2026-04-28 10:33 | 59.33299 | 4.91376 | 19386 ft | 272 kts | 23° |
| 2026-04-28 10:33 | 59.34995 | 4.93003 | 19081 ft | 271 kts | 23° |
| 2026-04-28 10:33 | 59.36683 | 4.94624 | 18778 ft | 270 kts | 23° |
| 2026-04-28 10:33 | 59.38372 | 4.96181 | 18423 ft | 267 kts | 17° |
| 2026-04-28 10:34 | 59.40186 | 4.96792 | 18098 ft | 264 kts | 0° |
| 2026-04-28 10:34 | 59.42009 | 4.96601 | 17788 ft | 262 kts | 356° |
| 2026-04-28 10:34 | 59.43820 | 4.96284 | 17484 ft | 260 kts | 356° |
| 2026-04-28 10:34 | 59.45617 | 4.95957 | 17183 ft | 259 kts | 356° |
| 2026-04-28 10:35 | 59.47406 | 4.95640 | 16887 ft | 258 kts | 356° |
| 2026-04-28 10:35 | 59.49206 | 4.95329 | 16597 ft | 261 kts | 356° |
| 2026-04-28 10:35 | 59.51028 | 4.95020 | 16306 ft | 267 kts | 356° |
| 2026-04-28 10:35 | 59.52901 | 4.94708 | 16002 ft | 273 kts | 356° |
| 2026-04-28 10:36 | 59.54798 | 4.94393 | 15688 ft | 273 kts | 356° |
| 2026-04-28 10:36 | 59.56689 | 4.94082 | 15383 ft | 272 kts | 355° |
| 2026-04-28 10:36 | 59.58566 | 4.93773 | 15091 ft | 270 kts | 355° |
| 2026-04-28 10:36 | 59.60428 | 4.93468 | 14801 ft | 268 kts | 355° |
| 2026-04-28 10:37 | 59.62279 | 4.93159 | 14518 ft | 266 kts | 354° |
| 2026-04-28 10:37 | 59.64103 | 4.92447 | 14059 ft | 271 kts | 345° |
| 2026-04-28 10:37 | 59.65895 | 4.91318 | 13712 ft | 270 kts | 343° |
| 2026-04-28 10:37 | 59.67672 | 4.90130 | 13375 ft | 269 kts | 342° |
| 2026-04-28 10:38 | 59.69441 | 4.88955 | 13056 ft | 267 kts | 343° |
| 2026-04-28 10:38 | 59.71201 | 4.87801 | 12751 ft | 266 kts | 343° |
| 2026-04-28 10:38 | 59.72952 | 4.86668 | 12454 ft | 264 kts | 343° |
| 2026-04-28 10:38 | 59.74691 | 4.85551 | 12166 ft | 262 kts | 343° |
| 2026-04-28 10:39 | 59.76422 | 4.84445 | 11873 ft | 261 kts | 343° |
| 2026-04-28 10:39 | 59.78144 | 4.83348 | 11590 ft | 259 kts | 343° |
| 2026-04-28 10:39 | 59.79855 | 4.82258 | 11302 ft | 258 kts | 342° |
| 2026-04-28 10:39 | 59.81559 | 4.81176 | 11020 ft | 257 kts | 342° |
| 2026-04-28 10:40 | 59.83255 | 4.80096 | 10750 ft | 256 kts | 342° |
| 2026-04-28 10:40 | 59.84947 | 4.79019 | 10474 ft | 255 kts | 342° |
| 2026-04-28 10:40 | 59.86633 | 4.77944 | 10171 ft | 254 kts | 342° |
| 2026-04-28 10:40 | 59.88312 | 4.76873 | 9863 ft | 253 kts | 342° |
| 2026-04-28 10:41 | 59.89984 | 4.75804 | 9577 ft | 252 kts | 342° |
| 2026-04-28 10:41 | 59.91647 | 4.74741 | 9311 ft | 250 kts | 342° |
| 2026-04-28 10:41 | 59.93332 | 4.73963 | 9017 ft | 249 kts | 360° |
| 2026-04-28 10:41 | 59.94974 | 4.74808 | 8936 ft | 244 kts | 26° |
| 2026-04-28 10:42 | 59.96281 | 4.76868 | 8815 ft | 246 kts | 48° |
| 2026-04-28 10:42 | 59.97236 | 4.79724 | 8734 ft | 249 kts | 57° |
| 2026-04-28 10:42 | 59.98064 | 4.82793 | 8618 ft | 254 kts | 66° |
| 2026-04-28 10:42 | 59.98258 | 4.86260 | 8466 ft | 254 kts | 98° |
| 2026-04-28 10:43 | 59.97564 | 4.89464 | 8267 ft | 254 kts | 126° |
| 2026-04-28 10:43 | 59.96320 | 4.91949 | 8074 ft | 254 kts | 138° |
| 2026-04-28 10:43 | 59.94953 | 4.94203 | 7858 ft | 255 kts | 138° |
| 2026-04-28 10:43 | 59.93861 | 4.96940 | 7627 ft | 252 kts | 116° |
| 2026-04-28 10:44 | 59.93029 | 4.99998 | 7419 ft | 250 kts | 117° |
| 2026-04-28 10:44 | 59.92171 | 5.03010 | 7204 ft | 250 kts | 117° |
| 2026-04-28 10:44 | 59.91598 | 5.06232 | 6945 ft | 247 kts | 97° |
| 2026-04-28 10:44 | 59.91372 | 5.09724 | 6365 ft | 257 kts | 89° |
| 2026-04-28 10:45 | 59.91773 | 5.13128 | 6061 ft | 252 kts | 58° |
| 2026-04-28 10:45 | 59.92939 | 5.15635 | 5815 ft | 246 kts | 30° |
| 2026-04-28 10:45 | 59.94504 | 5.16833 | 5594 ft | 240 kts | 6° |
| 2026-04-28 10:45 | 59.96152 | 5.16918 | 5388 ft | 235 kts | 357° |
| 2026-04-28 10:46 | 59.97776 | 5.16746 | 5180 ft | 232 kts | 355° |
| 2026-04-28 10:46 | 59.99383 | 5.16564 | 4972 ft | 231 kts | 356° |
| 2026-04-28 10:46 | 60.00965 | 5.16402 | 4785 ft | 224 kts | 356° |
| 2026-04-28 10:46 | 60.02495 | 5.16258 | 4562 ft | 216 kts | 356° |
| 2026-04-28 10:47 | 60.03966 | 5.16126 | 4373 ft | 207 kts | 356° |
| 2026-04-28 10:47 | 60.05374 | 5.16001 | 4191 ft | 198 kts | 356° |
| 2026-04-28 10:47 | 60.06726 | 5.16026 | 4006 ft | 193 kts | 12° |
| 2026-04-28 10:47 | 60.07820 | 5.17448 | 3894 ft | 191 kts | 50° |
| 2026-04-28 10:48 | 60.08524 | 5.19710 | 3760 ft | 190 kts | 58° |
| 2026-04-28 10:48 | 60.09165 | 5.21971 | 3584 ft | 183 kts | 58° |
| 2026-04-28 10:48 | 60.09779 | 5.24149 | 3403 ft | 177 kts | 58° |
| 2026-04-28 10:48 | 60.10398 | 5.26213 | 3229 ft | 170 kts | 47° |
| 2026-04-28 10:49 | 60.11369 | 5.27386 | 3135 ft | 162 kts | 15° |
| 2026-04-28 10:49 | 60.12500 | 5.27495 | 2975 ft | 166 kts | 349° |
| 2026-04-28 10:49 | 60.13640 | 5.27088 | 2846 ft | 168 kts | 350° |
| 2026-04-28 10:49 | 60.14787 | 5.26702 | 2680 ft | 166 kts | 351° |
| 2026-04-28 10:50 | 60.15908 | 5.26326 | 2565 ft | 167 kts | 351° |
| 2026-04-28 10:50 | 60.17081 | 5.25933 | 2388 ft | 170 kts | 351° |
| 2026-04-28 10:50 | 60.18248 | 5.25542 | 2157 ft | 168 kts | 351° |
| 2026-04-28 10:50 | 60.19391 | 5.25159 | 1934 ft | 165 kts | 350° |
| 2026-04-28 10:51 | 60.20490 | 5.24791 | 1722 ft | 161 kts | 350° |
| 2026-04-28 10:51 | 60.21588 | 5.24423 | 1525 ft | 160 kts | 350° |
| 2026-04-28 10:51 | 60.22678 | 5.24058 | 1316 ft | 155 kts | 350° |
| 2026-04-28 10:51 | 60.23713 | 5.23711 | 1126 ft | 148 kts | 349° |
| 2026-04-28 10:52 | 60.24726 | 5.23372 | 910 ft | 146 kts | 348° |
| 2026-04-28 10:52 | 60.25723 | 5.23038 | 710 ft | 144 kts | 348° |
| 2026-04-28 10:52 | 60.26705 | 5.22709 | 523 ft | 142 kts | 348° |
| 2026-04-28 10:52 | 60.27676 | 5.22384 | 347 ft | 141 kts | 349° |
| 2026-04-28 10:53 | 60.28640 | 5.22059 | 170 ft | 139 kts | 349° |
| 2026-04-28 10:53 | 60.29463 | 5.21776 | 149 ft | 91 kts | 351° |
| 2026-04-28 10:53 | 60.29872 | 5.21636 | 156 ft | 28 kts | 350° |
| 2026-04-28 10:53 | 60.29979 | 5.21603 | 160 ft | 14 kts | 356° |
| 2026-04-28 10:54 | 60.30042 | 5.21725 | 159 ft | 15 kts | 80° |
| 2026-04-28 10:54 | 60.30025 | 5.21905 | 157 ft | 9 kts | 148° |
| 2026-04-28 10:54 | 60.29949 | 5.21933 | 154 ft | 13 kts | 168° |
| 2026-04-28 10:54 | 60.29842 | 5.21969 | 150 ft | 18 kts | 173° |
| 2026-04-28 10:55 | 60.29773 | 5.21988 | 147 ft | 6 kts | 172° |
| 2026-04-28 10:55 | 60.29719 | 5.22006 | 147 ft | 10 kts | 169° |
| 2026-04-28 10:55 | 60.29643 | 5.22033 | 147 ft | 12 kts | 170° |
| 2026-04-28 10:55 | 60.29560 | 5.22063 | 151 ft | 12 kts | 170° |
| 2026-04-28 10:56 | 60.29479 | 5.22093 | 155 ft | 12 kts | 170° |
| 2026-04-28 10:56 | 60.29404 | 5.22119 | 157 ft | 9 kts | 171° |
| 2026-04-28 10:56 | 60.29345 | 5.22138 | 159 ft | 9 kts | 172° |
| 2026-04-28 10:56 | 60.29278 | 5.22159 | 161 ft | 11 kts | 171° |
| 2026-04-28 10:57 | 60.29187 | 5.22188 | 162 ft | 16 kts | 169° |
| 2026-04-28 10:57 | 60.29099 | 5.22225 | 162 ft | 10 kts | 156° |
| 2026-04-28 10:57 | 60.29074 | 5.22319 | 165 ft | 7 kts | 121° |
| 2026-04-28 10:57 | 60.29034 | 5.22404 | 167 ft | 9 kts | 112° |
| 2026-04-28 10:58 | 60.29036 | 5.22495 | 170 ft | 5 kts | 65° |
| 2026-04-28 10:58 | 60.29065 | 5.22541 | 172 ft | 5 kts | 33° |
| 2026-04-28 10:58 | 60.29079 | 5.22559 | 173 ft | 0 kts | 32° |
| 2026-04-28 10:58 | 60.29080 | 5.22560 | 173 ft | 0 kts | 32° |